sensor_id;sensor_type;location;lat;lon;timestamp;P1;durP1;ratioP1;P2;durP2;ratioP2
55601;SDS011;59921;51.332;12.410;2023-01-05T00:01:13;4.65;;;2.70;;
55601;SDS011;59921;51.332;12.410;2023-01-05T00:03:38;3.90;;;2.70;;
55601;SDS011;59921;51.332;12.410;2023-01-05T00:06:09;5.03;;;2.60;;
55601;SDS011;59921;51.332;12.410;2023-01-05T00:08:36;4.80;;;2.58;;
55601;SDS011;59921;51.332;12.410;2023-01-05T00:11:06;4.43;;;2.53;;
55601;SDS011;59921;51.332;12.410;2023-01-05T00:13:53;3.83;;;2.55;;
55601;SDS011;59921;51.332;12.410;2023-01-05T00:16:37;4.80;;;2.40;;
55601;SDS011;59921;51.332;12.410;2023-01-05T00:19:21;4.07;;;2.50;;
55601;SDS011;59921;51.332;12.410;2023-01-05T00:22:19;5.43;;;2.78;;
55601;SDS011;59921;51.332;12.410;2023-01-05T00:24:54;4.43;;;2.63;;
55601;SDS011;59921;51.332;12.410;2023-01-05T00:27:20;5.63;;;2.85;;
55601;SDS011;59921;51.332;12.410;2023-01-05T00:29:46;4.50;;;2.70;;
55601;SDS011;59921;51.332;12.410;2023-01-05T00:32:11;4.22;;;2.80;;
55601;SDS011;59921;51.332;12.410;2023-01-05T00:34:36;4.35;;;2.78;;
55601;SDS011;59921;51.332;12.410;2023-01-05T00:37:02;4.70;;;2.90;;
55601;SDS011;59921;51.332;12.410;2023-01-05T00:39:27;5.80;;;2.72;;
55601;SDS011;59921;51.332;12.410;2023-01-05T00:41:53;4.97;;;2.78;;
55601;SDS011;59921;51.332;12.410;2023-01-05T00:44:19;4.57;;;2.80;;
55601;SDS011;59921;51.332;12.410;2023-01-05T00:46:44;5.65;;;2.90;;
55601;SDS011;59921;51.332;12.410;2023-01-05T00:49:10;4.43;;;2.80;;
55601;SDS011;59921;51.332;12.410;2023-01-05T00:51:35;4.78;;;2.75;;
55601;SDS011;59921;51.332;12.410;2023-01-05T00:54:01;5.72;;;3.05;;
55601;SDS011;59921;51.332;12.410;2023-01-05T00:56:26;4.38;;;2.70;;
55601;SDS011;59921;51.332;12.410;2023-01-05T00:58:52;4.57;;;3.20;;
55601;SDS011;59921;51.332;12.410;2023-01-05T01:01:19;5.53;;;2.75;;
55601;SDS011;59921;51.332;12.410;2023-01-05T01:03:45;3.50;;;2.28;;
55601;SDS011;59921;51.332;12.410;2023-01-05T01:06:10;4.82;;;2.88;;
55601;SDS011;59921;51.332;12.410;2023-01-05T01:08:37;4.32;;;2.60;;
55601;SDS011;59921;51.332;12.410;2023-01-05T01:11:07;4.28;;;2.60;;
55601;SDS011;59921;51.332;12.410;2023-01-05T01:13:33;5.40;;;2.80;;
55601;SDS011;59921;51.332;12.410;2023-01-05T01:16:06;5.95;;;2.85;;
55601;SDS011;59921;51.332;12.410;2023-01-05T01:18:35;3.35;;;2.33;;
55601;SDS011;59921;51.332;12.410;2023-01-05T01:21:00;4.55;;;2.65;;
55601;SDS011;59921;51.332;12.410;2023-01-05T01:23:26;4.63;;;2.70;;
55601;SDS011;59921;51.332;12.410;2023-01-05T01:25:52;4.55;;;2.65;;
55601;SDS011;59921;51.332;12.410;2023-01-05T01:28:17;5.18;;;2.80;;
55601;SDS011;59921;51.332;12.410;2023-01-05T01:30:43;3.78;;;2.40;;
55601;SDS011;59921;51.332;12.410;2023-01-05T01:33:08;5.10;;;2.90;;
55601;SDS011;59921;51.332;12.410;2023-01-05T01:35:35;4.78;;;2.58;;
55601;SDS011;59921;51.332;12.410;2023-01-05T01:38:02;5.25;;;2.67;;
55601;SDS011;59921;51.332;12.410;2023-01-05T01:40:28;4.40;;;2.38;;
55601;SDS011;59921;51.332;12.410;2023-01-05T01:42:54;4.85;;;2.65;;
55601;SDS011;59921;51.332;12.410;2023-01-05T01:45:20;5.43;;;2.50;;
55601;SDS011;59921;51.332;12.410;2023-01-05T01:47:55;3.97;;;2.30;;
55601;SDS011;59921;51.332;12.410;2023-01-05T01:50:26;3.83;;;2.28;;
55601;SDS011;59921;51.332;12.410;2023-01-05T01:53:02;5.18;;;2.40;;
55601;SDS011;59921;51.332;12.410;2023-01-05T01:55:32;4.82;;;2.70;;
55601;SDS011;59921;51.332;12.410;2023-01-05T01:57:58;3.88;;;2.42;;
55601;SDS011;59921;51.332;12.410;2023-01-05T02:00:27;5.00;;;2.30;;
55601;SDS011;59921;51.332;12.410;2023-01-05T02:02:53;4.63;;;2.20;;
55601;SDS011;59921;51.332;12.410;2023-01-05T02:05:21;4.55;;;2.20;;
55601;SDS011;59921;51.332;12.410;2023-01-05T02:07:53;4.85;;;2.80;;
55601;SDS011;59921;51.332;12.410;2023-01-05T02:10:21;4.78;;;2.60;;
55601;SDS011;59921;51.332;12.410;2023-01-05T02:16:02;4.28;;;2.30;;
55601;SDS011;59921;51.332;12.410;2023-01-05T02:27:57;3.63;;;2.20;;
55601;SDS011;59921;51.332;12.410;2023-01-05T02:33:31;4.03;;;2.20;;
55601;SDS011;59921;51.332;12.410;2023-01-05T02:42:12;3.90;;;2.28;;
55601;SDS011;59921;51.332;12.410;2023-01-05T02:44:42;3.83;;;2.17;;
55601;SDS011;59921;51.332;12.410;2023-01-05T02:49:49;4.05;;;2.08;;
55601;SDS011;59921;51.332;12.410;2023-01-05T02:52:44;4.25;;;2.05;;
55601;SDS011;59921;51.332;12.410;2023-01-05T02:55:15;3.55;;;2.03;;
55601;SDS011;59921;51.332;12.410;2023-01-05T02:57:46;4.90;;;2.33;;
55601;SDS011;59921;51.332;12.410;2023-01-05T03:00:26;3.17;;;1.90;;
55601;SDS011;59921;51.332;12.410;2023-01-05T03:03:18;3.50;;;1.90;;
55601;SDS011;59921;51.332;12.410;2023-01-05T03:06:07;4.18;;;2.20;;
55601;SDS011;59921;51.332;12.410;2023-01-05T03:08:47;4.53;;;2.35;;
55601;SDS011;59921;51.332;12.410;2023-01-05T03:11:15;3.83;;;2.10;;
55601;SDS011;59921;51.332;12.410;2023-01-05T03:14:02;4.15;;;2.00;;
55601;SDS011;59921;51.332;12.410;2023-01-05T03:16:29;3.92;;;2.05;;
55601;SDS011;59921;51.332;12.410;2023-01-05T03:19:00;4.28;;;2.08;;
55601;SDS011;59921;51.332;12.410;2023-01-05T03:21:48;4.18;;;2.10;;
55601;SDS011;59921;51.332;12.410;2023-01-05T03:24:35;3.25;;;2.00;;
55601;SDS011;59921;51.332;12.410;2023-01-05T03:27:20;4.70;;;2.10;;
55601;SDS011;59921;51.332;12.410;2023-01-05T03:30:05;4.10;;;1.80;;
55601;SDS011;59921;51.332;12.410;2023-01-05T03:32:51;3.85;;;2.08;;
55601;SDS011;59921;51.332;12.410;2023-01-05T03:35:42;4.63;;;1.90;;
55601;SDS011;59921;51.332;12.410;2023-01-05T03:38:14;3.45;;;2.00;;
55601;SDS011;59921;51.332;12.410;2023-01-05T03:40:49;3.72;;;1.95;;
55601;SDS011;59921;51.332;12.410;2023-01-05T03:43:16;3.33;;;1.92;;
55601;SDS011;59921;51.332;12.410;2023-01-05T03:45:46;4.22;;;1.92;;
55601;SDS011;59921;51.332;12.410;2023-01-05T03:50:42;3.60;;;1.83;;
55601;SDS011;59921;51.332;12.410;2023-01-05T03:53:07;3.83;;;1.77;;
55601;SDS011;59921;51.332;12.410;2023-01-05T03:55:33;3.35;;;1.83;;
55601;SDS011;59921;51.332;12.410;2023-01-05T03:57:58;4.80;;;2.20;;
55601;SDS011;59921;51.332;12.410;2023-01-05T04:00:24;3.75;;;2.20;;
55601;SDS011;59921;51.332;12.410;2023-01-05T04:02:50;3.17;;;1.92;;
55601;SDS011;59921;51.332;12.410;2023-01-05T04:05:16;3.20;;;1.90;;
55601;SDS011;59921;51.332;12.410;2023-01-05T04:07:42;4.20;;;2.03;;
55601;SDS011;59921;51.332;12.410;2023-01-05T04:10:07;3.63;;;1.92;;
55601;SDS011;59921;51.332;12.410;2023-01-05T04:12:33;4.53;;;2.05;;
55601;SDS011;59921;51.332;12.410;2023-01-05T04:15:01;4.10;;;2.00;;
55601;SDS011;59921;51.332;12.410;2023-01-05T04:17:27;4.47;;;2.20;;
55601;SDS011;59921;51.332;12.410;2023-01-05T04:19:53;4.45;;;2.08;;
55601;SDS011;59921;51.332;12.410;2023-01-05T04:22:19;3.80;;;2.00;;
55601;SDS011;59921;51.332;12.410;2023-01-05T04:24:44;5.63;;;2.20;;
55601;SDS011;59921;51.332;12.410;2023-01-05T04:27:10;3.33;;;2.00;;
55601;SDS011;59921;51.332;12.410;2023-01-05T04:29:35;4.55;;;2.08;;
55601;SDS011;59921;51.332;12.410;2023-01-05T04:32:01;3.63;;;2.10;;
55601;SDS011;59921;51.332;12.410;2023-01-05T04:34:27;3.33;;;1.90;;
55601;SDS011;59921;51.332;12.410;2023-01-05T04:36:52;4.00;;;2.17;;
55601;SDS011;59921;51.332;12.410;2023-01-05T04:39:18;5.15;;;2.40;;
55601;SDS011;59921;51.332;12.410;2023-01-05T04:41:43;4.30;;;2.17;;
55601;SDS011;59921;51.332;12.410;2023-01-05T04:44:09;4.43;;;2.10;;
55601;SDS011;59921;51.332;12.410;2023-01-05T04:46:34;4.13;;;2.10;;
55601;SDS011;59921;51.332;12.410;2023-01-05T04:49:00;4.15;;;2.20;;
55601;SDS011;59921;51.332;12.410;2023-01-05T04:51:25;3.97;;;2.10;;
55601;SDS011;59921;51.332;12.410;2023-01-05T04:53:51;4.30;;;2.45;;
55601;SDS011;59921;51.332;12.410;2023-01-05T04:56:17;4.45;;;2.40;;
55601;SDS011;59921;51.332;12.410;2023-01-05T04:58:42;3.15;;;2.00;;
55601;SDS011;59921;51.332;12.410;2023-01-05T05:01:08;3.83;;;1.98;;
55601;SDS011;59921;51.332;12.410;2023-01-05T05:03:34;3.67;;;2.00;;
55601;SDS011;59921;51.332;12.410;2023-01-05T05:05:59;3.67;;;2.10;;
55601;SDS011;59921;51.332;12.410;2023-01-05T05:08:25;4.57;;;2.35;;
55601;SDS011;59921;51.332;12.410;2023-01-05T05:10:50;3.70;;;2.03;;
55601;SDS011;59921;51.332;12.410;2023-01-05T05:13:16;4.57;;;2.15;;
55601;SDS011;59921;51.332;12.410;2023-01-05T05:15:43;3.38;;;2.10;;
55601;SDS011;59921;51.332;12.410;2023-01-05T05:18:08;3.55;;;2.15;;
55601;SDS011;59921;51.332;12.410;2023-01-05T05:20:34;4.15;;;2.30;;
55601;SDS011;59921;51.332;12.410;2023-01-05T05:23:00;4.28;;;2.10;;
55601;SDS011;59921;51.332;12.410;2023-01-05T05:25:26;4.15;;;2.05;;
55601;SDS011;59921;51.332;12.410;2023-01-05T05:27:51;4.28;;;2.45;;
55601;SDS011;59921;51.332;12.410;2023-01-05T05:30:17;4.78;;;2.20;;
55601;SDS011;59921;51.332;12.410;2023-01-05T05:32:42;4.47;;;2.10;;
55601;SDS011;59921;51.332;12.410;2023-01-05T05:35:08;4.95;;;2.10;;
55601;SDS011;59921;51.332;12.410;2023-01-05T05:37:34;4.05;;;2.28;;
55601;SDS011;59921;51.332;12.410;2023-01-05T05:39:59;3.42;;;2.10;;
55601;SDS011;59921;51.332;12.410;2023-01-05T05:42:25;3.90;;;2.28;;
55601;SDS011;59921;51.332;12.410;2023-01-05T05:44:50;4.53;;;2.40;;
55601;SDS011;59921;51.332;12.410;2023-01-05T05:47:16;5.30;;;2.63;;
55601;SDS011;59921;51.332;12.410;2023-01-05T05:49:41;4.55;;;2.17;;
55601;SDS011;59921;51.332;12.410;2023-01-05T05:52:10;4.53;;;2.15;;
55601;SDS011;59921;51.332;12.410;2023-01-05T05:54:35;4.10;;;2.15;;
55601;SDS011;59921;51.332;12.410;2023-01-05T05:57:01;4.45;;;2.38;;
55601;SDS011;59921;51.332;12.410;2023-01-05T05:59:26;5.70;;;2.70;;
55601;SDS011;59921;51.332;12.410;2023-01-05T06:01:52;4.28;;;2.20;;
55601;SDS011;59921;51.332;12.410;2023-01-05T06:04:17;4.38;;;2.53;;
55601;SDS011;59921;51.332;12.410;2023-01-05T06:06:43;3.72;;;2.28;;
55601;SDS011;59921;51.332;12.410;2023-01-05T06:09:08;5.25;;;2.60;;
55601;SDS011;59921;51.332;12.410;2023-01-05T06:11:34;4.13;;;2.08;;
55601;SDS011;59921;51.332;12.410;2023-01-05T06:13:59;3.83;;;2.08;;
55601;SDS011;59921;51.332;12.410;2023-01-05T06:16:27;4.35;;;2.10;;
55601;SDS011;59921;51.332;12.410;2023-01-05T06:18:53;4.80;;;2.28;;
55601;SDS011;59921;51.332;12.410;2023-01-05T06:21:18;4.68;;;2.50;;
55601;SDS011;59921;51.332;12.410;2023-01-05T06:23:46;4.05;;;2.10;;
55601;SDS011;59921;51.332;12.410;2023-01-05T06:26:11;5.47;;;2.40;;
55601;SDS011;59921;51.332;12.410;2023-01-05T06:28:37;4.20;;;2.40;;
55601;SDS011;59921;51.332;12.410;2023-01-05T06:31:02;4.32;;;2.40;;
55601;SDS011;59921;51.332;12.410;2023-01-05T06:33:28;3.63;;;1.92;;
55601;SDS011;59921;51.332;12.410;2023-01-05T06:35:53;3.75;;;2.08;;
55601;SDS011;59921;51.332;12.410;2023-01-05T06:38:19;4.07;;;2.30;;
55601;SDS011;59921;51.332;12.410;2023-01-05T06:40:45;4.00;;;2.00;;
55601;SDS011;59921;51.332;12.410;2023-01-05T06:43:11;5.40;;;2.80;;
55601;SDS011;59921;51.332;12.410;2023-01-05T06:45:37;5.28;;;2.50;;
55601;SDS011;59921;51.332;12.410;2023-01-05T06:48:03;4.75;;;2.30;;
55601;SDS011;59921;51.332;12.410;2023-01-05T06:50:29;4.22;;;2.30;;
55601;SDS011;59921;51.332;12.410;2023-01-05T06:52:56;4.35;;;2.15;;
55601;SDS011;59921;51.332;12.410;2023-01-05T06:55:21;4.63;;;2.53;;
55601;SDS011;59921;51.332;12.410;2023-01-05T06:57:47;3.72;;;2.10;;
55601;SDS011;59921;51.332;12.410;2023-01-05T07:00:13;4.40;;;2.17;;
55601;SDS011;59921;51.332;12.410;2023-01-05T07:02:39;4.25;;;2.30;;
55601;SDS011;59921;51.332;12.410;2023-01-05T07:05:05;4.45;;;2.28;;
55601;SDS011;59921;51.332;12.410;2023-01-05T07:07:31;4.40;;;2.30;;
55601;SDS011;59921;51.332;12.410;2023-01-05T07:09:56;4.85;;;2.30;;
55601;SDS011;59921;51.332;12.410;2023-01-05T07:12:22;4.75;;;2.17;;
55601;SDS011;59921;51.332;12.410;2023-01-05T07:14:48;4.18;;;2.00;;
55601;SDS011;59921;51.332;12.410;2023-01-05T07:17:13;5.22;;;2.50;;
55601;SDS011;59921;51.332;12.410;2023-01-05T07:19:42;5.25;;;2.35;;
55601;SDS011;59921;51.332;12.410;2023-01-05T07:22:07;4.18;;;2.10;;
55601;SDS011;59921;51.332;12.410;2023-01-05T07:24:33;4.35;;;2.28;;
55601;SDS011;59921;51.332;12.410;2023-01-05T07:26:59;4.65;;;2.20;;
55601;SDS011;59921;51.332;12.410;2023-01-05T07:29:25;5.15;;;2.35;;
55601;SDS011;59921;51.332;12.410;2023-01-05T07:31:50;3.92;;;2.00;;
55601;SDS011;59921;51.332;12.410;2023-01-05T07:34:20;3.63;;;2.00;;
55601;SDS011;59921;51.332;12.410;2023-01-05T07:36:46;4.68;;;2.20;;
55601;SDS011;59921;51.332;12.410;2023-01-05T07:39:12;4.18;;;2.03;;
55601;SDS011;59921;51.332;12.410;2023-01-05T07:41:38;4.70;;;2.05;;
55601;SDS011;59921;51.332;12.410;2023-01-05T07:44:03;4.88;;;2.10;;
55601;SDS011;59921;51.332;12.410;2023-01-05T07:46:29;4.43;;;2.22;;
55601;SDS011;59921;51.332;12.410;2023-01-05T07:48:55;5.05;;;2.38;;
55601;SDS011;59921;51.332;12.410;2023-01-05T07:51:21;3.65;;;2.35;;
55601;SDS011;59921;51.332;12.410;2023-01-05T07:53:46;4.97;;;2.08;;
55601;SDS011;59921;51.332;12.410;2023-01-05T07:56:12;4.22;;;2.13;;
55601;SDS011;59921;51.332;12.410;2023-01-05T07:58:38;4.72;;;2.20;;
55601;SDS011;59921;51.332;12.410;2023-01-05T08:01:05;4.03;;;2.25;;
55601;SDS011;59921;51.332;12.410;2023-01-05T08:03:32;4.40;;;2.15;;
55601;SDS011;59921;51.332;12.410;2023-01-05T08:05:57;3.92;;;2.05;;
55601;SDS011;59921;51.332;12.410;2023-01-05T08:08:31;5.00;;;2.60;;
55601;SDS011;59921;51.332;12.410;2023-01-05T08:10:56;4.68;;;2.00;;
55601;SDS011;59921;51.332;12.410;2023-01-05T08:13:22;4.68;;;2.05;;
55601;SDS011;59921;51.332;12.410;2023-01-05T08:16:06;5.63;;;2.42;;
55601;SDS011;59921;51.332;12.410;2023-01-05T08:18:32;4.40;;;2.35;;
55601;SDS011;59921;51.332;12.410;2023-01-05T08:20:58;4.15;;;2.05;;
55601;SDS011;59921;51.332;12.410;2023-01-05T08:23:28;5.55;;;2.40;;
55601;SDS011;59921;51.332;12.410;2023-01-05T08:25:55;4.15;;;2.13;;
55601;SDS011;59921;51.332;12.410;2023-01-05T08:28:21;4.85;;;2.15;;
55601;SDS011;59921;51.332;12.410;2023-01-05T08:30:48;4.47;;;2.00;;
55601;SDS011;59921;51.332;12.410;2023-01-05T08:33:14;4.35;;;2.25;;
55601;SDS011;59921;51.332;12.410;2023-01-05T08:35:40;5.25;;;2.25;;
55601;SDS011;59921;51.332;12.410;2023-01-05T08:38:06;5.05;;;2.28;;
55601;SDS011;59921;51.332;12.410;2023-01-05T08:40:32;4.72;;;2.40;;
55601;SDS011;59921;51.332;12.410;2023-01-05T08:42:57;4.03;;;2.10;;
55601;SDS011;59921;51.332;12.410;2023-01-05T08:45:23;4.18;;;2.25;;
55601;SDS011;59921;51.332;12.410;2023-01-05T08:47:48;4.38;;;2.47;;
55601;SDS011;59921;51.332;12.410;2023-01-05T08:50:15;4.82;;;2.35;;
55601;SDS011;59921;51.332;12.410;2023-01-05T08:52:41;5.32;;;2.53;;
55601;SDS011;59921;51.332;12.410;2023-01-05T08:55:07;3.63;;;2.25;;
55601;SDS011;59921;51.332;12.410;2023-01-05T08:57:33;4.95;;;2.40;;
55601;SDS011;59921;51.332;12.410;2023-01-05T08:59:59;3.78;;;2.10;;
55601;SDS011;59921;51.332;12.410;2023-01-05T09:02:24;5.40;;;2.40;;
55601;SDS011;59921;51.332;12.410;2023-01-05T09:04:50;4.00;;;2.20;;
55601;SDS011;59921;51.332;12.410;2023-01-05T09:07:16;4.78;;;2.53;;
55601;SDS011;59921;51.332;12.410;2023-01-05T09:09:42;4.47;;;2.50;;
55601;SDS011;59921;51.332;12.410;2023-01-05T09:12:08;4.95;;;2.30;;
55601;SDS011;59921;51.332;12.410;2023-01-05T09:14:33;4.88;;;2.45;;
55601;SDS011;59921;51.332;12.410;2023-01-05T09:16:59;5.05;;;2.40;;
55601;SDS011;59921;51.332;12.410;2023-01-05T09:19:25;3.47;;;2.03;;
55601;SDS011;59921;51.332;12.410;2023-01-05T09:21:51;4.00;;;2.30;;
55601;SDS011;59921;51.332;12.410;2023-01-05T09:24:17;5.45;;;2.40;;
55601;SDS011;59921;51.332;12.410;2023-01-05T09:26:43;4.53;;;2.25;;
55601;SDS011;59921;51.332;12.410;2023-01-05T09:29:10;3.90;;;2.20;;
55601;SDS011;59921;51.332;12.410;2023-01-05T09:31:37;5.72;;;2.38;;
55601;SDS011;59921;51.332;12.410;2023-01-05T09:34:03;4.45;;;2.40;;
55601;SDS011;59921;51.332;12.410;2023-01-05T09:36:29;4.97;;;2.38;;
55601;SDS011;59921;51.332;12.410;2023-01-05T09:38:56;4.80;;;2.30;;
55601;SDS011;59921;51.332;12.410;2023-01-05T09:41:32;4.15;;;1.92;;
55601;SDS011;59921;51.332;12.410;2023-01-05T09:44:01;4.15;;;2.47;;
55601;SDS011;59921;51.332;12.410;2023-01-05T09:46:33;4.43;;;2.20;;
55601;SDS011;59921;51.332;12.410;2023-01-05T09:49:02;5.47;;;2.65;;
55601;SDS011;59921;51.332;12.410;2023-01-05T09:51:30;4.57;;;2.05;;
55601;SDS011;59921;51.332;12.410;2023-01-05T09:53:57;4.75;;;2.13;;
55601;SDS011;59921;51.332;12.410;2023-01-05T09:56:27;4.95;;;2.22;;
55601;SDS011;59921;51.332;12.410;2023-01-05T09:59:02;5.30;;;2.33;;
55601;SDS011;59921;51.332;12.410;2023-01-05T10:01:31;4.70;;;2.35;;
55601;SDS011;59921;51.332;12.410;2023-01-05T10:04:02;4.60;;;2.22;;
55601;SDS011;59921;51.332;12.410;2023-01-05T10:06:34;3.60;;;1.98;;
55601;SDS011;59921;51.332;12.410;2023-01-05T10:09:03;4.93;;;2.25;;
55601;SDS011;59921;51.332;12.410;2023-01-05T10:14:53;3.70;;;1.92;;
55601;SDS011;59921;51.332;12.410;2023-01-05T10:17:25;3.97;;;1.92;;
55601;SDS011;59921;51.332;12.410;2023-01-05T10:19:52;4.22;;;2.10;;
55601;SDS011;59921;51.332;12.410;2023-01-05T10:24:50;3.95;;;2.20;;
55601;SDS011;59921;51.332;12.410;2023-01-05T10:27:27;3.58;;;2.05;;
55601;SDS011;59921;51.332;12.410;2023-01-05T10:32:57;5.00;;;2.20;;
55601;SDS011;59921;51.332;12.410;2023-01-05T10:45:47;4.50;;;2.35;;
55601;SDS011;59921;51.332;12.410;2023-01-05T10:48:13;3.70;;;1.95;;
55601;SDS011;59921;51.332;12.410;2023-01-05T10:50:44;4.43;;;2.13;;
55601;SDS011;59921;51.332;12.410;2023-01-05T10:53:15;3.38;;;2.00;;
55601;SDS011;59921;51.332;12.410;2023-01-05T10:55:47;3.78;;;2.00;;
55601;SDS011;59921;51.332;12.410;2023-01-05T10:58:21;2.80;;;1.83;;
55601;SDS011;59921;51.332;12.410;2023-01-05T11:00:51;4.15;;;2.13;;
55601;SDS011;59921;51.332;12.410;2023-01-05T11:03:22;4.00;;;2.10;;
55601;SDS011;59921;51.332;12.410;2023-01-05T11:05:52;3.20;;;2.20;;
55601;SDS011;59921;51.332;12.410;2023-01-05T11:08:19;3.60;;;1.83;;
55601;SDS011;59921;51.332;12.410;2023-01-05T11:10:59;3.90;;;2.10;;
55601;SDS011;59921;51.332;12.410;2023-01-05T11:16:17;4.32;;;2.38;;
55601;SDS011;59921;51.332;12.410;2023-01-05T11:18:46;3.78;;;1.98;;
55601;SDS011;59921;51.332;12.410;2023-01-05T11:21:18;4.35;;;1.95;;
55601;SDS011;59921;51.332;12.410;2023-01-05T11:23:56;2.97;;;1.95;;
55601;SDS011;59921;51.332;12.410;2023-01-05T11:34:08;3.75;;;2.00;;
55601;SDS011;59921;51.332;12.410;2023-01-05T11:36:38;3.47;;;1.80;;
55601;SDS011;59921;51.332;12.410;2023-01-05T11:39:05;3.63;;;1.95;;
55601;SDS011;59921;51.332;12.410;2023-01-05T11:41:31;4.05;;;2.05;;
55601;SDS011;59921;51.332;12.410;2023-01-05T11:43:57;3.25;;;1.85;;
55601;SDS011;59921;51.332;12.410;2023-01-05T11:46:25;2.95;;;1.70;;
55601;SDS011;59921;51.332;12.410;2023-01-05T11:49:04;3.20;;;1.75;;
55601;SDS011;59921;51.332;12.410;2023-01-05T11:51:39;3.00;;;1.75;;
55601;SDS011;59921;51.332;12.410;2023-01-05T11:54:23;3.33;;;1.77;;
55601;SDS011;59921;51.332;12.410;2023-01-05T11:59:40;4.03;;;2.05;;
55601;SDS011;59921;51.332;12.410;2023-01-05T12:05:12;3.30;;;1.70;;
55601;SDS011;59921;51.332;12.410;2023-01-05T12:07:55;3.72;;;2.00;;
55601;SDS011;59921;51.332;12.410;2023-01-05T12:26:25;3.72;;;1.83;;
55601;SDS011;59921;51.332;12.410;2023-01-05T12:43:15;3.10;;;1.90;;
55601;SDS011;59921;51.332;12.410;2023-01-05T12:51:24;3.17;;;1.70;;
55601;SDS011;59921;51.332;12.410;2023-01-05T12:56:40;2.92;;;1.48;;
55601;SDS011;59921;51.332;12.410;2023-01-05T12:59:20;3.78;;;1.90;;
55601;SDS011;59921;51.332;12.410;2023-01-05T13:02:07;4.53;;;2.03;;
55601;SDS011;59921;51.332;12.410;2023-01-05T13:07:50;4.38;;;1.70;;
55601;SDS011;59921;51.332;12.410;2023-01-05T13:10:23;3.47;;;1.73;;
55601;SDS011;59921;51.332;12.410;2023-01-05T13:12:57;3.53;;;1.73;;
55601;SDS011;59921;51.332;12.410;2023-01-05T13:15:39;3.00;;;1.67;;
55601;SDS011;59921;51.332;12.410;2023-01-05T13:18:13;3.40;;;1.70;;
55601;SDS011;59921;51.332;12.410;2023-01-05T13:20:45;4.60;;;1.98;;
55601;SDS011;59921;51.332;12.410;2023-01-05T13:26:05;2.90;;;1.80;;
55601;SDS011;59921;51.332;12.410;2023-01-05T13:28:32;3.67;;;1.80;;
55601;SDS011;59921;51.332;12.410;2023-01-05T13:39:28;3.05;;;1.70;;
55601;SDS011;59921;51.332;12.410;2023-01-05T13:47:47;4.03;;;1.52;;
55601;SDS011;59921;51.332;12.410;2023-01-05T13:53:13;3.05;;;1.52;;
55601;SDS011;59921;51.332;12.410;2023-01-05T13:55:43;3.47;;;1.60;;
55601;SDS011;59921;51.332;12.410;2023-01-05T13:59:01;3.72;;;1.92;;
55601;SDS011;59921;51.332;12.410;2023-01-05T14:01:13;2.40;;;1.50;;
55601;SDS011;59921;51.332;12.410;2023-01-05T14:03:51;2.50;;;1.63;;
55601;SDS011;59921;51.332;12.410;2023-01-05T14:06:23;3.38;;;1.58;;
55601;SDS011;59921;51.332;12.410;2023-01-05T14:08:56;3.50;;;1.70;;
55601;SDS011;59921;51.332;12.410;2023-01-05T14:11:28;4.10;;;1.77;;
55601;SDS011;59921;51.332;12.410;2023-01-05T14:13:55;3.17;;;1.50;;
55601;SDS011;59921;51.332;12.410;2023-01-05T14:27:13;2.95;;;1.45;;
55601;SDS011;59921;51.332;12.410;2023-01-05T14:32:08;4.15;;;1.90;;
55601;SDS011;59921;51.332;12.410;2023-01-05T14:34:36;2.42;;;1.48;;
55601;SDS011;59921;51.332;12.410;2023-01-05T14:37:20;3.00;;;1.55;;
55601;SDS011;59921;51.332;12.410;2023-01-05T14:39:52;2.97;;;1.63;;
55601;SDS011;59921;51.332;12.410;2023-01-05T14:42:29;2.80;;;1.60;;
55601;SDS011;59921;51.332;12.410;2023-01-05T14:44:59;3.80;;;1.63;;
55601;SDS011;59921;51.332;12.410;2023-01-05T14:47:45;3.67;;;1.75;;
55601;SDS011;59921;51.332;12.410;2023-01-05T14:50:46;3.05;;;1.60;;
55601;SDS011;59921;51.332;12.410;2023-01-05T14:56:12;3.03;;;1.60;;
55601;SDS011;59921;51.332;12.410;2023-01-05T15:03:50;2.40;;;1.30;;
55601;SDS011;59921;51.332;12.410;2023-01-05T15:28:50;3.13;;;1.50;;
55601;SDS011;59921;51.332;12.410;2023-01-05T15:34:28;3.55;;;1.55;;
55601;SDS011;59921;51.332;12.410;2023-01-05T15:37:13;2.53;;;1.60;;
55601;SDS011;59921;51.332;12.410;2023-01-05T15:39:45;3.47;;;1.70;;
55601;SDS011;59921;51.332;12.410;2023-01-05T15:42:18;3.45;;;1.83;;
55601;SDS011;59921;51.332;12.410;2023-01-05T15:44:45;3.33;;;1.80;;
55601;SDS011;59921;51.332;12.410;2023-01-05T15:47:12;3.20;;;1.88;;
55601;SDS011;59921;51.332;12.410;2023-01-05T15:49:39;3.05;;;1.67;;
55601;SDS011;59921;51.332;12.410;2023-01-05T15:52:05;3.30;;;1.83;;
55601;SDS011;59921;51.332;12.410;2023-01-05T15:54:44;2.60;;;1.73;;
55601;SDS011;59921;51.332;12.410;2023-01-05T15:57:25;3.75;;;1.70;;
55601;SDS011;59921;51.332;12.410;2023-01-05T15:59:50;3.38;;;1.70;;
55601;SDS011;59921;51.332;12.410;2023-01-05T16:02:25;2.90;;;1.88;;
55601;SDS011;59921;51.332;12.410;2023-01-05T16:07:40;3.25;;;1.80;;
55601;SDS011;59921;51.332;12.410;2023-01-05T16:15:31;3.00;;;1.80;;
55601;SDS011;59921;51.332;12.410;2023-01-05T16:17:59;3.97;;;2.10;;
55601;SDS011;59921;51.332;12.410;2023-01-05T16:20:26;3.05;;;1.63;;
55601;SDS011;59921;51.332;12.410;2023-01-05T16:22:55;4.38;;;2.15;;
55601;SDS011;59921;51.332;12.410;2023-01-05T16:25:23;3.50;;;1.98;;
55601;SDS011;59921;51.332;12.410;2023-01-05T16:27:52;3.67;;;2.03;;
55601;SDS011;59921;51.332;12.410;2023-01-05T16:33:15;3.58;;;1.95;;
55601;SDS011;59921;51.332;12.410;2023-01-05T16:35:50;3.90;;;2.30;;
55601;SDS011;59921;51.332;12.410;2023-01-05T16:38:24;3.15;;;1.83;;
55601;SDS011;59921;51.332;12.410;2023-01-05T16:43:43;3.30;;;2.10;;
55601;SDS011;59921;51.332;12.410;2023-01-05T16:51:18;3.90;;;2.10;;
55601;SDS011;59921;51.332;12.410;2023-01-05T16:53:56;4.30;;;2.03;;
55601;SDS011;59921;51.332;12.410;2023-01-05T16:58:58;3.15;;;1.75;;
55601;SDS011;59921;51.332;12.410;2023-01-05T17:01:25;3.58;;;2.00;;
55601;SDS011;59921;51.332;12.410;2023-01-05T17:04:11;3.90;;;2.15;;
55601;SDS011;59921;51.332;12.410;2023-01-05T17:06:38;3.90;;;1.80;;
55601;SDS011;59921;51.332;12.410;2023-01-05T17:09:28;3.05;;;1.80;;
55601;SDS011;59921;51.332;12.410;2023-01-05T17:11:56;3.60;;;2.13;;
55601;SDS011;59921;51.332;12.410;2023-01-05T17:14:22;3.92;;;2.05;;
55601;SDS011;59921;51.332;12.410;2023-01-05T17:16:48;3.83;;;2.08;;
55601;SDS011;59921;51.332;12.410;2023-01-05T17:19:17;3.80;;;2.20;;
55601;SDS011;59921;51.332;12.410;2023-01-05T17:21:53;4.05;;;2.17;;
55601;SDS011;59921;51.332;12.410;2023-01-05T17:24:20;2.45;;;1.63;;
55601;SDS011;59921;51.332;12.410;2023-01-05T17:26:47;4.13;;;1.98;;
55601;SDS011;59921;51.332;12.410;2023-01-05T17:29:19;4.32;;;1.98;;
55601;SDS011;59921;51.332;12.410;2023-01-05T17:31:47;2.55;;;1.90;;
55601;SDS011;59921;51.332;12.410;2023-01-05T17:34:13;3.08;;;1.80;;
55601;SDS011;59921;51.332;12.410;2023-01-05T17:36:39;3.58;;;2.08;;
55601;SDS011;59921;51.332;12.410;2023-01-05T17:39:05;2.63;;;1.80;;
55601;SDS011;59921;51.332;12.410;2023-01-05T17:41:31;2.75;;;1.90;;
55601;SDS011;59921;51.332;12.410;2023-01-05T17:43:57;2.85;;;1.67;;
55601;SDS011;59921;51.332;12.410;2023-01-05T17:46:30;3.83;;;2.10;;
55601;SDS011;59921;51.332;12.410;2023-01-05T17:48:57;3.15;;;1.90;;
55601;SDS011;59921;51.332;12.410;2023-01-05T17:51:25;2.83;;;1.90;;
55601;SDS011;59921;51.332;12.410;2023-01-05T17:53:53;2.90;;;1.70;;
55601;SDS011;59921;51.332;12.410;2023-01-05T17:56:19;3.45;;;2.00;;
55601;SDS011;59921;51.332;12.410;2023-01-05T17:58:45;4.18;;;1.90;;